sensor_id;sensor_type;location;lat;lon;timestamp;P1;durP1;ratioP1;P2;durP2;ratioP2
9218;SDS011;4644;48.858;9.184;2023-05-02T00:00:56;9.10;;;8.20;;
9218;SDS011;4644;48.858;9.184;2023-05-02T00:03:26;8.15;;;7.30;;
9218;SDS011;4644;48.858;9.184;2023-05-02T00:05:53;9.40;;;7.90;;
9218;SDS011;4644;48.858;9.184;2023-05-02T00:08:20;8.60;;;7.72;;
9218;SDS011;4644;48.858;9.184;2023-05-02T00:10:47;8.80;;;7.90;;
9218;SDS011;4644;48.858;9.184;2023-05-02T00:13:14;8.90;;;8.10;;
9218;SDS011;4644;48.858;9.184;2023-05-02T00:15:42;8.48;;;7.57;;
9218;SDS011;4644;48.858;9.184;2023-05-02T00:18:10;8.23;;;7.43;;
9218;SDS011;4644;48.858;9.184;2023-05-02T00:20:38;9.32;;;7.35;;
9218;SDS011;4644;48.858;9.184;2023-05-02T00:23:06;8.67;;;7.23;;
9218;SDS011;4644;48.858;9.184;2023-05-02T00:25:33;8.50;;;7.50;;
9218;SDS011;4644;48.858;9.184;2023-05-02T00:28:00;8.02;;;7.22;;
9218;SDS011;4644;48.858;9.184;2023-05-02T00:30:27;8.15;;;7.35;;
9218;SDS011;4644;48.858;9.184;2023-05-02T00:32:55;9.95;;;7.20;;
9218;SDS011;4644;48.858;9.184;2023-05-02T00:35:22;7.95;;;7.18;;
9218;SDS011;4644;48.858;9.184;2023-05-02T00:37:49;9.95;;;7.00;;
9218;SDS011;4644;48.858;9.184;2023-05-02T00:40:16;8.00;;;7.03;;
9218;SDS011;4644;48.858;9.184;2023-05-02T00:42:43;7.70;;;7.00;;
9218;SDS011;4644;48.858;9.184;2023-05-02T00:45:10;8.65;;;7.75;;
9218;SDS011;4644;48.858;9.184;2023-05-02T00:47:37;7.93;;;6.80;;
9218;SDS011;4644;48.858;9.184;2023-05-02T00:50:06;7.90;;;7.20;;
9218;SDS011;4644;48.858;9.184;2023-05-02T00:52:34;7.45;;;6.75;;
9218;SDS011;4644;48.858;9.184;2023-05-02T00:55:02;7.80;;;7.05;;
9218;SDS011;4644;48.858;9.184;2023-05-02T00:57:30;7.20;;;6.50;;
9218;SDS011;4644;48.858;9.184;2023-05-02T00:59:58;7.88;;;7.18;;
9218;SDS011;4644;48.858;9.184;2023-05-02T01:02:29;7.72;;;6.93;;
9218;SDS011;4644;48.858;9.184;2023-05-02T01:05:10;7.75;;;7.05;;
9218;SDS011;4644;48.858;9.184;2023-05-02T01:07:55;7.10;;;6.40;;
9218;SDS011;4644;48.858;9.184;2023-05-02T01:10:37;7.18;;;6.18;;
9218;SDS011;4644;48.858;9.184;2023-05-02T01:13:16;7.22;;;6.53;;
9218;SDS011;4644;48.858;9.184;2023-05-02T01:15:46;8.07;;;6.90;;
9218;SDS011;4644;48.858;9.184;2023-05-02T01:18:15;7.82;;;7.13;;
9218;SDS011;4644;48.858;9.184;2023-05-02T01:20:47;7.35;;;6.65;;
9218;SDS011;4644;48.858;9.184;2023-05-02T01:23:21;7.30;;;6.60;;
9218;SDS011;4644;48.858;9.184;2023-05-02T01:25:58;7.85;;;7.07;;
9218;SDS011;4644;48.858;9.184;2023-05-02T01:28:35;8.03;;;7.07;;
9218;SDS011;4644;48.858;9.184;2023-05-02T01:31:13;7.93;;;7.15;;
9218;SDS011;4644;48.858;9.184;2023-05-02T01:33:41;8.55;;;7.65;;
9218;SDS011;4644;48.858;9.184;2023-05-02T01:36:11;7.60;;;6.85;;
9218;SDS011;4644;48.858;9.184;2023-05-02T01:38:39;8.40;;;7.03;;
9218;SDS011;4644;48.858;9.184;2023-05-02T01:41:09;8.68;;;7.88;;
9218;SDS011;4644;48.858;9.184;2023-05-02T01:43:37;8.27;;;7.47;;
9218;SDS011;4644;48.858;9.184;2023-05-02T01:46:07;8.52;;;7.72;;
9218;SDS011;4644;48.858;9.184;2023-05-02T01:48:36;7.53;;;6.82;;
9218;SDS011;4644;48.858;9.184;2023-05-02T01:51:04;9.25;;;8.05;;
9218;SDS011;4644;48.858;9.184;2023-05-02T01:53:32;8.48;;;7.68;;
9218;SDS011;4644;48.858;9.184;2023-05-02T01:56:01;8.02;;;7.30;;
9218;SDS011;4644;48.858;9.184;2023-05-02T01:58:30;8.75;;;7.85;;
9218;SDS011;4644;48.858;9.184;2023-05-02T02:00:59;8.27;;;7.35;;
9218;SDS011;4644;48.858;9.184;2023-05-02T02:03:28;8.27;;;7.47;;
9218;SDS011;4644;48.858;9.184;2023-05-02T02:05:56;8.50;;;7.70;;
9218;SDS011;4644;48.858;9.184;2023-05-02T02:08:24;10.52;;;7.35;;
9218;SDS011;4644;48.858;9.184;2023-05-02T02:10:53;9.13;;;7.65;;
9218;SDS011;4644;48.858;9.184;2023-05-02T02:13:25;8.27;;;7.47;;
9218;SDS011;4644;48.858;9.184;2023-05-02T02:18:24;8.35;;;7.50;;
9218;SDS011;4644;48.858;9.184;2023-05-02T02:20:55;7.70;;;7.00;;
9218;SDS011;4644;48.858;9.184;2023-05-02T02:23:25;9.00;;;8.10;;
9218;SDS011;4644;48.858;9.184;2023-05-02T02:25:54;8.93;;;7.90;;
9218;SDS011;4644;48.858;9.184;2023-05-02T02:28:22;8.93;;;7.55;;
9218;SDS011;4644;48.858;9.184;2023-05-02T02:30:49;8.80;;;8.00;;
9218;SDS011;4644;48.858;9.184;2023-05-02T02:33:16;8.63;;;7.72;;
9218;SDS011;4644;48.858;9.184;2023-05-02T02:35:47;8.93;;;8.13;;
9218;SDS011;4644;48.858;9.184;2023-05-02T02:38:19;9.38;;;8.35;;
9218;SDS011;4644;48.858;9.184;2023-05-02T02:40:54;8.52;;;7.35;;
9218;SDS011;4644;48.858;9.184;2023-05-02T02:43:26;8.18;;;7.40;;
9218;SDS011;4644;48.858;9.184;2023-05-02T02:46:01;9.18;;;8.27;;
9218;SDS011;4644;48.858;9.184;2023-05-02T02:48:40;8.38;;;7.55;;
9218;SDS011;4644;48.858;9.184;2023-05-02T02:51:18;8.90;;;8.00;;
9218;SDS011;4644;48.858;9.184;2023-05-02T02:53:52;9.00;;;8.20;;
9218;SDS011;4644;48.858;9.184;2023-05-02T02:56:27;9.18;;;8.27;;
9218;SDS011;4644;48.858;9.184;2023-05-02T02:59:03;10.27;;;7.90;;
9218;SDS011;4644;48.858;9.184;2023-05-02T03:01:32;9.00;;;8.10;;
9218;SDS011;4644;48.858;9.184;2023-05-02T03:04:02;9.73;;;8.82;;
9218;SDS011;4644;48.858;9.184;2023-05-02T03:06:34;9.20;;;8.23;;
9218;SDS011;4644;48.858;9.184;2023-05-02T03:09:01;9.40;;;8.43;;
9218;SDS011;4644;48.858;9.184;2023-05-02T03:11:29;8.82;;;7.93;;
9218;SDS011;4644;48.858;9.184;2023-05-02T03:13:56;8.80;;;7.90;;
9218;SDS011;4644;48.858;9.184;2023-05-02T03:16:30;9.18;;;8.07;;
9218;SDS011;4644;48.858;9.184;2023-05-02T03:19:02;10.20;;;8.13;;
9218;SDS011;4644;48.858;9.184;2023-05-02T03:21:30;8.80;;;8.00;;
9218;SDS011;4644;48.858;9.184;2023-05-02T03:23:59;10.13;;;8.10;;
9218;SDS011;4644;48.858;9.184;2023-05-02T03:26:27;8.95;;;8.07;;
9218;SDS011;4644;48.858;9.184;2023-05-02T03:28:54;10.82;;;8.85;;
9218;SDS011;4644;48.858;9.184;2023-05-02T03:31:22;9.15;;;8.25;;
9218;SDS011;4644;48.858;9.184;2023-05-02T03:33:48;9.23;;;8.32;;
9218;SDS011;4644;48.858;9.184;2023-05-02T03:36:15;8.82;;;8.05;;
9218;SDS011;4644;48.858;9.184;2023-05-02T03:38:42;9.67;;;8.67;;
9218;SDS011;4644;48.858;9.184;2023-05-02T03:41:11;9.20;;;8.32;;
9218;SDS011;4644;48.858;9.184;2023-05-02T03:43:38;9.73;;;8.82;;
9218;SDS011;4644;48.858;9.184;2023-05-02T03:46:05;10.25;;;8.90;;
9218;SDS011;4644;48.858;9.184;2023-05-02T03:48:33;9.45;;;8.45;;
9218;SDS011;4644;48.858;9.184;2023-05-02T03:51:01;9.43;;;8.43;;
9218;SDS011;4644;48.858;9.184;2023-05-02T03:53:28;9.45;;;8.55;;
9218;SDS011;4644;48.858;9.184;2023-05-02T03:55:55;9.93;;;8.93;;
9218;SDS011;4644;48.858;9.184;2023-05-02T03:58:24;9.73;;;8.80;;
9218;SDS011;4644;48.858;9.184;2023-05-02T04:00:52;9.30;;;8.40;;
9218;SDS011;4644;48.858;9.184;2023-05-02T04:03:19;9.85;;;8.55;;
9218;SDS011;4644;48.858;9.184;2023-05-02T04:05:47;10.27;;;8.98;;
9218;SDS011;4644;48.858;9.184;2023-05-02T04:08:15;10.75;;;9.65;;
9218;SDS011;4644;48.858;9.184;2023-05-02T04:10:42;9.50;;;8.60;;
9218;SDS011;4644;48.858;9.184;2023-05-02T04:13:09;9.73;;;8.60;;
9218;SDS011;4644;48.858;9.184;2023-05-02T04:15:38;10.75;;;9.45;;
9218;SDS011;4644;48.858;9.184;2023-05-02T04:18:05;9.02;;;8.13;;
9218;SDS011;4644;48.858;9.184;2023-05-02T04:20:32;10.70;;;9.60;;
9218;SDS011;4644;48.858;9.184;2023-05-02T04:22:58;9.88;;;8.88;;
9218;SDS011;4644;48.858;9.184;2023-05-02T04:25:26;10.25;;;9.20;;
9218;SDS011;4644;48.858;9.184;2023-05-02T04:27:53;9.75;;;8.75;;
9218;SDS011;4644;48.858;9.184;2023-05-02T04:30:20;10.02;;;9.02;;
9218;SDS011;4644;48.858;9.184;2023-05-02T04:32:49;10.30;;;9.20;;
9218;SDS011;4644;48.858;9.184;2023-05-02T04:35:16;11.00;;;9.95;;
9218;SDS011;4644;48.858;9.184;2023-05-02T04:37:43;12.20;;;9.15;;
9218;SDS011;4644;48.858;9.184;2023-05-02T04:40:10;11.07;;;9.88;;
9218;SDS011;4644;48.858;9.184;2023-05-02T04:42:38;11.23;;;10.03;;
9218;SDS011;4644;48.858;9.184;2023-05-02T04:45:05;11.25;;;9.60;;
9218;SDS011;4644;48.858;9.184;2023-05-02T04:47:33;10.98;;;9.95;;
9218;SDS011;4644;48.858;9.184;2023-05-02T04:50:01;10.83;;;9.70;;
9218;SDS011;4644;48.858;9.184;2023-05-02T04:52:29;11.55;;;10.27;;
9218;SDS011;4644;48.858;9.184;2023-05-02T04:54:56;10.18;;;9.18;;
9218;SDS011;4644;48.858;9.184;2023-05-02T04:57:23;10.77;;;9.68;;
9218;SDS011;4644;48.858;9.184;2023-05-02T04:59:50;10.27;;;9.18;;
9218;SDS011;4644;48.858;9.184;2023-05-02T05:02:18;10.98;;;9.88;;
9218;SDS011;4644;48.858;9.184;2023-05-02T05:04:45;9.30;;;8.40;;
9218;SDS011;4644;48.858;9.184;2023-05-02T05:07:13;9.90;;;8.90;;
9218;SDS011;4644;48.858;9.184;2023-05-02T05:09:40;10.02;;;9.13;;
9218;SDS011;4644;48.858;9.184;2023-05-02T05:12:07;10.80;;;9.70;;
9218;SDS011;4644;48.858;9.184;2023-05-02T05:14:34;10.30;;;9.25;;
9218;SDS011;4644;48.858;9.184;2023-05-02T05:17:01;10.15;;;9.15;;
9218;SDS011;4644;48.858;9.184;2023-05-02T05:19:28;12.00;;;9.52;;
9218;SDS011;4644;48.858;9.184;2023-05-02T05:21:55;11.07;;;9.85;;
9218;SDS011;4644;48.858;9.184;2023-05-02T05:24:23;10.68;;;9.65;;
9218;SDS011;4644;48.858;9.184;2023-05-02T05:26:50;11.40;;;9.85;;
9218;SDS011;4644;48.858;9.184;2023-05-02T05:29:17;10.55;;;9.55;;
9218;SDS011;4644;48.858;9.184;2023-05-02T05:31:44;11.30;;;9.65;;
9218;SDS011;4644;48.858;9.184;2023-05-02T05:34:12;10.57;;;9.68;;
9218;SDS011;4644;48.858;9.184;2023-05-02T05:36:39;12.00;;;9.80;;
9218;SDS011;4644;48.858;9.184;2023-05-02T05:39:06;11.00;;;9.90;;
9218;SDS011;4644;48.858;9.184;2023-05-02T05:41:35;10.48;;;9.48;;
9218;SDS011;4644;48.858;9.184;2023-05-02T05:44:02;10.68;;;9.57;;
9218;SDS011;4644;48.858;9.184;2023-05-02T05:46:30;11.32;;;10.23;;
9218;SDS011;4644;48.858;9.184;2023-05-02T05:48:57;11.18;;;10.07;;
9218;SDS011;4644;48.858;9.184;2023-05-02T05:51:24;10.68;;;9.57;;
9218;SDS011;4644;48.858;9.184;2023-05-02T05:53:52;14.43;;;10.35;;
9218;SDS011;4644;48.858;9.184;2023-05-02T05:56:19;10.80;;;9.70;;
9218;SDS011;4644;48.858;9.184;2023-05-02T05:58:48;10.65;;;9.68;;
9218;SDS011;4644;48.858;9.184;2023-05-02T06:01:15;11.32;;;10.18;;
9218;SDS011;4644;48.858;9.184;2023-05-02T06:03:42;11.55;;;10.35;;
9218;SDS011;4644;48.858;9.184;2023-05-02T06:06:09;11.18;;;9.73;;
9218;SDS011;4644;48.858;9.184;2023-05-02T06:08:36;13.25;;;10.20;;
9218;SDS011;4644;48.858;9.184;2023-05-02T06:11:07;11.20;;;10.20;;
9218;SDS011;4644;48.858;9.184;2023-05-02T06:13:35;11.40;;;10.20;;
9218;SDS011;4644;48.858;9.184;2023-05-02T06:16:04;12.20;;;10.93;;
9218;SDS011;4644;48.858;9.184;2023-05-02T06:18:31;11.20;;;10.10;;
9218;SDS011;4644;48.858;9.184;2023-05-02T06:21:02;12.05;;;10.90;;
9218;SDS011;4644;48.858;9.184;2023-05-02T06:23:29;12.65;;;11.48;;
9218;SDS011;4644;48.858;9.184;2023-05-02T06:25:57;12.77;;;11.48;;
9218;SDS011;4644;48.858;9.184;2023-05-02T06:28:25;12.43;;;11.23;;
9218;SDS011;4644;48.858;9.184;2023-05-02T06:30:56;12.32;;;11.05;;
9218;SDS011;4644;48.858;9.184;2023-05-02T06:33:25;11.50;;;10.35;;
9218;SDS011;4644;48.858;9.184;2023-05-02T06:35:52;12.15;;;11.05;;
9218;SDS011;4644;48.858;9.184;2023-05-02T06:38:19;11.68;;;10.57;;
9218;SDS011;4644;48.858;9.184;2023-05-02T06:40:46;11.93;;;10.70;;
9218;SDS011;4644;48.858;9.184;2023-05-02T06:43:14;13.20;;;11.80;;
9218;SDS011;4644;48.858;9.184;2023-05-02T06:45:41;12.77;;;11.13;;
9218;SDS011;4644;48.858;9.184;2023-05-02T06:48:08;13.60;;;11.77;;
9218;SDS011;4644;48.858;9.184;2023-05-02T06:50:37;13.20;;;11.80;;
9218;SDS011;4644;48.858;9.184;2023-05-02T06:53:04;13.30;;;11.87;;
9218;SDS011;4644;48.858;9.184;2023-05-02T06:55:31;13.60;;;12.30;;
9218;SDS011;4644;48.858;9.184;2023-05-02T06:57:58;14.07;;;12.57;;
9218;SDS011;4644;48.858;9.184;2023-05-02T07:00:25;16.25;;;12.88;;
9218;SDS011;4644;48.858;9.184;2023-05-02T07:02:52;15.18;;;13.57;;
9218;SDS011;4644;48.858;9.184;2023-05-02T07:05:19;14.02;;;12.57;;
9218;SDS011;4644;48.858;9.184;2023-05-02T07:07:47;14.77;;;13.23;;
9218;SDS011;4644;48.858;9.184;2023-05-02T07:10:14;15.77;;;13.32;;
9218;SDS011;4644;48.858;9.184;2023-05-02T07:12:41;14.82;;;13.23;;
9218;SDS011;4644;48.858;9.184;2023-05-02T07:15:08;15.40;;;13.80;;
9218;SDS011;4644;48.858;9.184;2023-05-02T07:17:37;18.30;;;14.17;;
9218;SDS011;4644;48.858;9.184;2023-05-02T07:20:05;19.50;;;14.68;;
9218;SDS011;4644;48.858;9.184;2023-05-02T07:22:33;17.17;;;14.55;;
9218;SDS011;4644;48.858;9.184;2023-05-02T07:25:02;18.60;;;14.95;;
9218;SDS011;4644;48.858;9.184;2023-05-02T07:27:29;16.63;;;14.82;;
9218;SDS011;4644;48.858;9.184;2023-05-02T07:29:56;17.02;;;15.32;;
9218;SDS011;4644;48.858;9.184;2023-05-02T07:32:23;19.98;;;17.23;;
9218;SDS011;4644;48.858;9.184;2023-05-02T07:34:50;17.80;;;15.83;;
9218;SDS011;4644;48.858;9.184;2023-05-02T07:37:19;17.60;;;15.82;;
9218;SDS011;4644;48.858;9.184;2023-05-02T07:39:46;18.80;;;16.83;;
9218;SDS011;4644;48.858;9.184;2023-05-02T07:42:14;17.92;;;16.13;;
9218;SDS011;4644;48.858;9.184;2023-05-02T07:44:41;17.95;;;16.05;;
9218;SDS011;4644;48.858;9.184;2023-05-02T07:47:08;20.13;;;16.60;;
9218;SDS011;4644;48.858;9.184;2023-05-02T07:49:35;21.73;;;17.13;;
9218;SDS011;4644;48.858;9.184;2023-05-02T07:52:02;20.80;;;18.33;;
9218;SDS011;4644;48.858;9.184;2023-05-02T07:54:29;20.13;;;17.87;;
9218;SDS011;4644;48.858;9.184;2023-05-02T07:56:56;19.80;;;17.67;;
9218;SDS011;4644;48.858;9.184;2023-05-02T07:59:28;21.75;;;17.73;;
9218;SDS011;4644;48.858;9.184;2023-05-02T08:01:56;21.15;;;18.88;;
9218;SDS011;4644;48.858;9.184;2023-05-02T08:04:23;19.40;;;17.38;;
9218;SDS011;4644;48.858;9.184;2023-05-02T08:06:50;20.33;;;18.17;;
9218;SDS011;4644;48.858;9.184;2023-05-02T08:09:17;22.05;;;19.05;;
9218;SDS011;4644;48.858;9.184;2023-05-02T08:11:44;22.00;;;19.02;;
9218;SDS011;4644;48.858;9.184;2023-05-02T08:14:11;22.33;;;19.92;;
9218;SDS011;4644;48.858;9.184;2023-05-02T08:16:39;22.58;;;18.80;;
9218;SDS011;4644;48.858;9.184;2023-05-02T08:19:06;21.70;;;19.38;;
9218;SDS011;4644;48.858;9.184;2023-05-02T08:21:33;21.67;;;19.10;;
9218;SDS011;4644;48.858;9.184;2023-05-02T08:24:00;23.67;;;20.40;;
9218;SDS011;4644;48.858;9.184;2023-05-02T08:26:27;23.02;;;20.20;;
9218;SDS011;4644;48.858;9.184;2023-05-02T08:28:54;21.92;;;19.58;;
9218;SDS011;4644;48.858;9.184;2023-05-02T08:31:21;22.97;;;20.47;;
9218;SDS011;4644;48.858;9.184;2023-05-02T08:33:49;29.35;;;20.33;;
9218;SDS011;4644;48.858;9.184;2023-05-02T08:36:16;25.87;;;19.53;;
9218;SDS011;4644;48.858;9.184;2023-05-02T08:38:44;28.75;;;20.25;;
9218;SDS011;4644;48.858;9.184;2023-05-02T08:41:12;22.25;;;19.15;;
9218;SDS011;4644;48.858;9.184;2023-05-02T08:43:40;22.65;;;19.17;;
9218;SDS011;4644;48.858;9.184;2023-05-02T08:46:08;22.60;;;20.05;;
9218;SDS011;4644;48.858;9.184;2023-05-02T08:48:36;22.55;;;19.25;;
9218;SDS011;4644;48.858;9.184;2023-05-02T08:51:06;22.83;;;18.93;;
9218;SDS011;4644;48.858;9.184;2023-05-02T08:53:34;22.85;;;18.98;;
9218;SDS011;4644;48.858;9.184;2023-05-02T08:56:02;20.92;;;18.67;;
9218;SDS011;4644;48.858;9.184;2023-05-02T08:58:29;20.67;;;18.47;;
9218;SDS011;4644;48.858;9.184;2023-05-02T09:00:57;20.05;;;17.95;;
9218;SDS011;4644;48.858;9.184;2023-05-02T09:03:28;21.40;;;18.85;;
9218;SDS011;4644;48.858;9.184;2023-05-02T09:06:01;22.02;;;18.70;;
9218;SDS011;4644;48.858;9.184;2023-05-02T09:08:34;21.55;;;18.65;;
9218;SDS011;4644;48.858;9.184;2023-05-02T09:11:01;21.97;;;19.57;;
9218;SDS011;4644;48.858;9.184;2023-05-02T09:13:29;24.27;;;19.02;;
9218;SDS011;4644;48.858;9.184;2023-05-02T09:15:58;27.73;;;20.65;;
9218;SDS011;4644;48.858;9.184;2023-05-02T09:18:27;22.48;;;20.05;;
9218;SDS011;4644;48.858;9.184;2023-05-02T09:20:56;24.53;;;19.97;;
9218;SDS011;4644;48.858;9.184;2023-05-02T09:23:38;23.30;;;20.15;;
9218;SDS011;4644;48.858;9.184;2023-05-02T09:28:52;21.70;;;18.75;;
9218;SDS011;4644;48.858;9.184;2023-05-02T09:31:20;22.20;;;19.27;;
9218;SDS011;4644;48.858;9.184;2023-05-02T09:33:50;25.00;;;20.73;;
9218;SDS011;4644;48.858;9.184;2023-05-02T09:36:18;22.27;;;18.88;;
9218;SDS011;4644;48.858;9.184;2023-05-02T09:38:48;21.67;;;19.37;;
9218;SDS011;4644;48.858;9.184;2023-05-02T09:41:16;22.98;;;19.73;;
9218;SDS011;4644;48.858;9.184;2023-05-02T09:43:53;22.77;;;19.73;;
9218;SDS011;4644;48.858;9.184;2023-05-02T09:46:21;21.85;;;19.55;;
9218;SDS011;4644;48.858;9.184;2023-05-02T09:48:51;25.85;;;19.38;;
9218;SDS011;4644;48.858;9.184;2023-05-02T09:51:20;21.92;;;19.55;;
9218;SDS011;4644;48.858;9.184;2023-05-02T09:53:50;22.92;;;20.08;;
9218;SDS011;4644;48.858;9.184;2023-05-02T09:56:17;23.33;;;20.08;;
9218;SDS011;4644;48.858;9.184;2023-05-02T09:58:45;22.65;;;19.88;;
9218;SDS011;4644;48.858;9.184;2023-05-02T10:01:15;21.67;;;18.90;;
9218;SDS011;4644;48.858;9.184;2023-05-02T10:03:45;21.10;;;18.80;;
9218;SDS011;4644;48.858;9.184;2023-05-02T10:06:13;21.17;;;18.83;;
9218;SDS011;4644;48.858;9.184;2023-05-02T10:08:41;20.48;;;17.30;;
9218;SDS011;4644;48.858;9.184;2023-05-02T10:11:11;19.45;;;17.45;;
9218;SDS011;4644;48.858;9.184;2023-05-02T10:13:39;19.45;;;17.02;;
9218;SDS011;4644;48.858;9.184;2023-05-02T10:16:09;18.73;;;16.77;;
9218;SDS011;4644;48.858;9.184;2023-05-02T10:18:39;19.35;;;17.17;;
9218;SDS011;4644;48.858;9.184;2023-05-02T10:21:09;20.45;;;18.35;;
9218;SDS011;4644;48.858;9.184;2023-05-02T10:23:40;19.35;;;16.77;;
9218;SDS011;4644;48.858;9.184;2023-05-02T10:26:11;18.88;;;16.85;;
9218;SDS011;4644;48.858;9.184;2023-05-02T10:28:41;18.13;;;16.27;;
9218;SDS011;4644;48.858;9.184;2023-05-02T10:31:09;18.80;;;16.90;;
9218;SDS011;4644;48.858;9.184;2023-05-02T10:33:38;17.73;;;15.93;;
9218;SDS011;4644;48.858;9.184;2023-05-02T10:36:06;19.48;;;17.05;;
9218;SDS011;4644;48.858;9.184;2023-05-02T10:38:34;18.97;;;16.03;;
9218;SDS011;4644;48.858;9.184;2023-05-02T10:41:04;26.60;;;16.50;;
9218;SDS011;4644;48.858;9.184;2023-05-02T10:43:36;18.90;;;16.67;;
9218;SDS011;4644;48.858;9.184;2023-05-02T10:48:59;17.60;;;14.90;;
9218;SDS011;4644;48.858;9.184;2023-05-02T10:51:27;16.73;;;15.02;;
9218;SDS011;4644;48.858;9.184;2023-05-02T10:57:03;15.85;;;14.23;;
9218;SDS011;4644;48.858;9.184;2023-05-02T10:59:34;15.80;;;14.20;;
9218;SDS011;4644;48.858;9.184;2023-05-02T11:02:02;19.48;;;13.98;;
9218;SDS011;4644;48.858;9.184;2023-05-02T11:07:28;15.70;;;14.02;;
9218;SDS011;4644;48.858;9.184;2023-05-02T11:12:51;17.35;;;15.15;;
9218;SDS011;4644;48.858;9.184;2023-05-02T11:18:22;16.25;;;14.27;;
9218;SDS011;4644;48.858;9.184;2023-05-02T11:20:49;18.08;;;15.55;;
9218;SDS011;4644;48.858;9.184;2023-05-02T11:23:19;17.27;;;15.45;;
9218;SDS011;4644;48.858;9.184;2023-05-02T11:25:50;16.95;;;14.27;;
9218;SDS011;4644;48.858;9.184;2023-05-02T11:28:39;17.17;;;15.20;;
9218;SDS011;4644;48.858;9.184;2023-05-02T11:31:51;17.50;;;15.60;;
9218;SDS011;4644;48.858;9.184;2023-05-02T11:34:28;17.30;;;15.45;;
9218;SDS011;4644;48.858;9.184;2023-05-02T11:37:09;17.23;;;15.48;;
9218;SDS011;4644;48.858;9.184;2023-05-02T11:39:37;16.80;;;14.85;;
9218;SDS011;4644;48.858;9.184;2023-05-02T11:42:04;18.30;;;15.90;;
9218;SDS011;4644;48.858;9.184;2023-05-02T11:44:31;20.42;;;16.98;;
9218;SDS011;4644;48.858;9.184;2023-05-02T11:47:01;17.30;;;15.48;;
9218;SDS011;4644;48.858;9.184;2023-05-02T11:49:28;18.35;;;16.45;;
9218;SDS011;4644;48.858;9.184;2023-05-02T11:54:23;20.50;;;16.63;;
9218;SDS011;4644;48.858;9.184;2023-05-02T11:56:51;21.83;;;17.20;;
9218;SDS011;4644;48.858;9.184;2023-05-02T11:59:18;18.38;;;16.45;;
9218;SDS011;4644;48.858;9.184;2023-05-02T12:01:48;19.15;;;17.08;;
9218;SDS011;4644;48.858;9.184;2023-05-02T12:04:19;19.27;;;17.17;;
9218;SDS011;4644;48.858;9.184;2023-05-02T12:06:53;19.52;;;17.45;;
9218;SDS011;4644;48.858;9.184;2023-05-02T12:09:21;16.77;;;15.07;;
9218;SDS011;4644;48.858;9.184;2023-05-02T12:11:50;16.43;;;14.73;;
9218;SDS011;4644;48.858;9.184;2023-05-02T12:14:24;18.75;;;15.88;;
9218;SDS011;4644;48.858;9.184;2023-05-02T12:16:52;23.45;;;18.50;;
9218;SDS011;4644;48.858;9.184;2023-05-02T12:19:21;26.08;;;21.60;;
9218;SDS011;4644;48.858;9.184;2023-05-02T12:21:48;28.27;;;22.67;;
9218;SDS011;4644;48.858;9.184;2023-05-02T12:24:15;30.08;;;24.83;;
9218;SDS011;4644;48.858;9.184;2023-05-02T12:26:42;29.02;;;25.05;;
9218;SDS011;4644;48.858;9.184;2023-05-02T12:29:09;35.08;;;28.20;;
9218;SDS011;4644;48.858;9.184;2023-05-02T12:31:36;32.13;;;26.08;;
9218;SDS011;4644;48.858;9.184;2023-05-02T12:34:04;30.92;;;25.58;;
9218;SDS011;4644;48.858;9.184;2023-05-02T12:36:32;32.70;;;24.95;;
9218;SDS011;4644;48.858;9.184;2023-05-02T12:39:00;26.17;;;22.15;;
9218;SDS011;4644;48.858;9.184;2023-05-02T12:41:31;28.38;;;24.42;;
9218;SDS011;4644;48.858;9.184;2023-05-02T12:43:59;31.27;;;24.60;;
9218;SDS011;4644;48.858;9.184;2023-05-02T12:46:26;28.38;;;23.30;;
9218;SDS011;4644;48.858;9.184;2023-05-02T12:49:03;23.97;;;20.57;;
9218;SDS011;4644;48.858;9.184;2023-05-02T12:51:32;23.20;;;20.52;;
9218;SDS011;4644;48.858;9.184;2023-05-02T12:53:59;23.23;;;18.92;;
9218;SDS011;4644;48.858;9.184;2023-05-02T12:56:26;21.98;;;18.27;;
9218;SDS011;4644;48.858;9.184;2023-05-02T12:58:56;22.20;;;19.10;;
9218;SDS011;4644;48.858;9.184;2023-05-02T13:01:25;19.23;;;17.05;;
9218;SDS011;4644;48.858;9.184;2023-05-02T13:03:52;19.75;;;16.38;;
9218;SDS011;4644;48.858;9.184;2023-05-02T13:06:19;18.03;;;16.13;;
9218;SDS011;4644;48.858;9.184;2023-05-02T13:08:47;17.33;;;15.35;;
9218;SDS011;4644;48.858;9.184;2023-05-02T13:11:14;15.77;;;14.07;;
9218;SDS011;4644;48.858;9.184;2023-05-02T13:13:42;17.38;;;13.45;;
9218;SDS011;4644;48.858;9.184;2023-05-02T13:16:09;15.23;;;13.23;;
9218;SDS011;4644;48.858;9.184;2023-05-02T13:18:36;16.20;;;13.90;;
9218;SDS011;4644;48.858;9.184;2023-05-02T13:21:03;16.20;;;14.25;;
9218;SDS011;4644;48.858;9.184;2023-05-02T13:23:30;14.93;;;13.00;;
9218;SDS011;4644;48.858;9.184;2023-05-02T13:25:58;14.68;;;13.05;;
9218;SDS011;4644;48.858;9.184;2023-05-02T13:28:25;14.30;;;12.80;;
9218;SDS011;4644;48.858;9.184;2023-05-02T13:30:54;14.50;;;11.80;;
9218;SDS011;4644;48.858;9.184;2023-05-02T13:33:21;14.30;;;12.07;;
9218;SDS011;4644;48.858;9.184;2023-05-02T13:35:48;14.43;;;12.88;;
9218;SDS011;4644;48.858;9.184;2023-05-02T13:38:15;13.43;;;11.90;;
9218;SDS011;4644;48.858;9.184;2023-05-02T13:40:42;14.05;;;12.52;;
9218;SDS011;4644;48.858;9.184;2023-05-02T13:43:10;14.80;;;13.30;;
9218;SDS011;4644;48.858;9.184;2023-05-02T13:45:38;11.98;;;10.77;;
9218;SDS011;4644;48.858;9.184;2023-05-02T13:48:05;11.45;;;10.25;;
9218;SDS011;4644;48.858;9.184;2023-05-02T13:50:32;13.30;;;11.90;;
9218;SDS011;4644;48.858;9.184;2023-05-02T13:53:01;15.43;;;12.33;;
9218;SDS011;4644;48.858;9.184;2023-05-02T13:55:28;16.13;;;13.32;;
9218;SDS011;4644;48.858;9.184;2023-05-02T13:57:55;16.38;;;12.50;;
9218;SDS011;4644;48.858;9.184;2023-05-02T14:00:23;16.20;;;13.10;;
9218;SDS011;4644;48.858;9.184;2023-05-02T14:02:52;13.20;;;11.80;;
9218;SDS011;4644;48.858;9.184;2023-05-02T14:05:21;12.60;;;11.07;;
9218;SDS011;4644;48.858;9.184;2023-05-02T14:07:48;13.55;;;10.23;;
9218;SDS011;4644;48.858;9.184;2023-05-02T14:10:15;11.55;;;9.98;;
9218;SDS011;4644;48.858;9.184;2023-05-02T14:12:42;11.13;;;8.90;;
9218;SDS011;4644;48.858;9.184;2023-05-02T14:15:09;9.57;;;8.50;;
9218;SDS011;4644;48.858;9.184;2023-05-02T14:17:38;8.38;;;7.57;;
9218;SDS011;4644;48.858;9.184;2023-05-02T14:20:05;8.07;;;7.15;;
9218;SDS011;4644;48.858;9.184;2023-05-02T14:22:34;10.15;;;8.18;;
9218;SDS011;4644;48.858;9.184;2023-05-02T14:25:01;10.20;;;8.20;;
9218;SDS011;4644;48.858;9.184;2023-05-02T14:27:28;8.98;;;7.70;;
9218;SDS011;4644;48.858;9.184;2023-05-02T14:29:55;8.37;;;7.53;;
9218;SDS011;4644;48.858;9.184;2023-05-02T14:32:22;9.35;;;8.35;;
9218;SDS011;4644;48.858;9.184;2023-05-02T14:34:50;9.27;;;7.35;;
9218;SDS011;4644;48.858;9.184;2023-05-02T14:37:17;8.18;;;6.57;;
9218;SDS011;4644;48.858;9.184;2023-05-02T14:39:44;8.55;;;7.15;;
9218;SDS011;4644;48.858;9.184;2023-05-02T14:42:13;8.68;;;6.95;;
9218;SDS011;4644;48.858;9.184;2023-05-02T14:44:39;9.70;;;8.07;;
9218;SDS011;4644;48.858;9.184;2023-05-02T14:47:07;10.90;;;7.78;;
9218;SDS011;4644;48.858;9.184;2023-05-02T14:49:34;10.82;;;7.90;;
9218;SDS011;4644;48.858;9.184;2023-05-02T14:52:02;10.10;;;8.43;;
9218;SDS011;4644;48.858;9.184;2023-05-02T14:54:29;9.77;;;7.78;;
9218;SDS011;4644;48.858;9.184;2023-05-02T14:56:57;9.45;;;7.40;;
9218;SDS011;4644;48.858;9.184;2023-05-02T14:59:24;7.45;;;6.25;;
9218;SDS011;4644;48.858;9.184;2023-05-02T15:01:54;9.30;;;6.43;;
9218;SDS011;4644;48.858;9.184;2023-05-02T15:04:21;6.22;;;5.07;;
9218;SDS011;4644;48.858;9.184;2023-05-02T15:06:50;7.70;;;5.47;;
9218;SDS011;4644;48.858;9.184;2023-05-02T15:09:19;9.32;;;6.10;;
9218;SDS011;4644;48.858;9.184;2023-05-02T15:11:47;8.88;;;6.43;;
9218;SDS011;4644;48.858;9.184;2023-05-02T15:14:14;6.90;;;6.20;;
9218;SDS011;4644;48.858;9.184;2023-05-02T15:16:41;6.10;;;5.40;;
9218;SDS011;4644;48.858;9.184;2023-05-02T15:19:08;7.63;;;5.38;;
9218;SDS011;4644;48.858;9.184;2023-05-02T15:21:35;9.77;;;5.27;;
9218;SDS011;4644;48.858;9.184;2023-05-02T15:24:02;6.25;;;4.95;;
9218;SDS011;4644;48.858;9.184;2023-05-02T15:26:31;8.20;;;5.60;;
9218;SDS011;4644;48.858;9.184;2023-05-02T15:28:58;6.60;;;5.78;;